フォークランド諸島 の空港の天気 - METARとTAF

マウント・プレザント空軍基地 ( EGYP / MPN ) - フォークランド諸島 フォークランド諸島
飛行場実況気象(Metar)
観測時間08/17 07:50 FKST (08/17 10:50 UTC)
風向・風速南南西 10m/s
視程600m
天気現象しゅう雪
全天の8割程度の雲 雲底高度 370m
気温1℃
湿度69%
気圧1007hPa
METAREGYP 171050Z 20020KT 0600 SHSN BKN012CB 01/M04 Q1007 TEMPO 999 NSW FEW012CB
過去の天気等 Google飛行場航空写真 Wunderground天気予報

過去48時間のMETAR

飛行場予報(TAF)
発表時間: 8/17 07:56 FKST (8/17 10:56 UTC)
予報対象時間: 17日9時 FKST ~ 18日3時 FKST
風向・風速南南西 14m/s
視程10km以上
全天の4割程度の雲 雲底高度 760m
17日9時 FKST ~ 17日19時 FKST に 確率 30% で一時的に
視程700m
天気現象しゅう雪
17日9時 FKST ~ 17日16時 FKST に 確率 30% で一時的に
風向・風速南南西 14m/s 瞬間風速 20m/s
17日18時 FKST ~ 17日21時 FKST に徐々に
風向・風速南 9m/s
17日23時 FKST ~ 18日2時 FKST に徐々に
風向・風速西南西 7m/s
TAF AMD EGYP 171056Z 1712/1806 20028KT 9999 SCT025
PROB30 TEMPO 1712/1722 0700 SHSN VV/// BKN018CB
PROB30 TEMPO 1712/1719 20028G38KT
BECMG 1721/1724 18018KT
BECMG 1802/1805 24014KT